Delta Virtual Airport Information Service

Milan Malpensa Airport

ICAO: LIMC Country: Italy
Latitude: 45.6306 Longitude: 8.72811
Latest Arrival : AZA1030 (LIRF-LIMC) Latest Departure : RYR1698 (4) (LIMC-LICC)


WX CaptureLIVE
Data provided by noaa.gov | Fetched at 05:20:05

METAR : LIMC 300950Z VRB03KT CAVOK 19/12 Q1016 NOSIG

TAF : LIMC 300500Z 3006/0112 VRB05KT CAVOK TEMPO 0100/0106 4000 BR


Runway Data for LIMC
Data provided by openaviationdata.com

Runway ID Mag Var Hdg Length Elevation Surface ILS Freq ILS Id ILS Slope
17L 1 168° 12862 ft 767 ft Asphalt 110.75 IMSL 3
17R 1 168° 12863 ft 767 ft Asphalt -- -- --
35L 1 348° 12863 ft 767 ft Asphalt 109.1 IMA 3
35R 1 348° 12862 ft 767 ft Asphalt 109.9 MLP 3

Milan Malpensa Airport, Italy
Use only for reference purposes



Not for navigational purposes.